Time;durP1;ratioP1;P1;durP2;ratioP2;P2;SDS_P1;SDS_P2;PMS_P1;PMS_P2;Temp;Humidity;BMP_temperature;BMP_pressure;BME280_temperature;BME280_humidity;BME280_pressure;Samples;Min_cycle;Max_cycle;Signal;HPM_P1;HPM_P2
2022/05/01 00:00:28;;;;;;;14.85;11.18;;;;;;;;;;6159042;23;20020;-82
2022/05/01 00:02:54;;;;;;;13.75;11.07;;;;;;;;;;6158714;23;20017;-82
2022/05/01 00:05:20;;;;;;;16.85;11.10;;;;;;;;;;6158824;23;20028;-82
2022/05/01 00:07:46;;;;;;;13.95;10.60;;;;;;;;;;6158713;23;20021;-82
2022/05/01 00:10:12;;;;;;;16.88;11.73;;;;;;;;;;6158967;23;20442;-82
2022/05/01 00:12:39;;;;;;;15.93;12.45;;;;;;;;;;6185052;23;20046;-81
2022/05/01 00:15:06;;;;;;;16.35;11.23;;;;;;;;;;6134496;23;20386;-81
2022/05/01 00:17:32;;;;;;;15.25;11.30;;;;;;;;;;6134108;23;20017;-82
2022/05/01 00:19:58;;;;;;;14.93;11.52;;;;;;;;;;6185618;23;20013;-82
2022/05/01 00:22:23;;;;;;;14.48;11.25;;;;;;;;;;6185322;23;20390;-82
2022/05/01 00:24:50;;;;;;;17.83;11.80;;;;;;;;;;6158883;23;20043;-82
2022/05/01 00:27:17;;;;;;;14.68;11.18;;;;;;;;;;6170332;23;20029;-81
2022/05/01 00:29:43;;;;;;;16.35;12.27;;;;;;;;;;6188845;23;20024;-82
2022/05/01 00:32:09;;;;;;;18.13;12.20;;;;;;;;;;6188404;23;20388;-82
2022/05/01 00:37:19;;;;;;;14.80;11.85;;;;;;;;;;6214917;23;20032;-82
2022/05/01 00:39:46;;;;;;;19.45;13.35;;;;;;;;;;6188649;23;20017;-82
2022/05/01 00:42:12;;;;;;;18.98;13.65;;;;;;;;;;6188426;23;20051;-83
2022/05/01 00:44:39;;;;;;;16.90;12.23;;;;;;;;;;6215470;23;20091;-82
2022/05/01 00:47:05;;;;;;;18.48;13.02;;;;;;;;;;6188159;23;20020;-82
2022/05/01 00:49:31;;;;;;;16.67;12.57;;;;;;;;;;6188519;23;20500;-82
2022/05/01 00:51:58;;;;;;;16.65;12.15;;;;;;;;;;6188450;23;20020;-82
2022/05/01 00:54:31;;;;;;;16.25;11.57;;;;;;;;;;6215326;23;20008;-82
2022/05/01 00:57:06;;;;;;;18.00;12.73;;;;;;;;;;6188351;23;20023;-82
2022/05/01 00:59:33;;;;;;;17.83;12.93;;;;;;;;;;6188557;23;20401;-82
2022/05/01 01:01:59;;;;;;;16.02;11.50;;;;;;;;;;6188782;23;20476;-82
2022/05/01 01:04:25;;;;;;;17.38;11.43;;;;;;;;;;6188207;23;20020;-82
2022/05/01 01:06:51;;;;;;;13.65;10.10;;;;;;;;;;6188369;23;20020;-82
2022/05/01 01:09:18;;;;;;;13.48;10.55;;;;;;;;;;6188066;23;20389;-82
2022/05/01 01:11:44;;;;;;;15.38;11.00;;;;;;;;;;6188353;23;20013;-81
2022/05/01 01:14:11;;;;;;;17.52;10.80;;;;;;;;;;6188181;23;20083;-82
2022/05/01 01:16:38;;;;;;;13.95;9.60;;;;;;;;;;6188326;23;20314;-82
2022/05/01 01:19:04;;;;;;;13.77;10.02;;;;;;;;;;6189877;23;20464;-82
2022/05/01 01:21:30;;;;;;;14.75;10.52;;;;;;;;;;6190488;23;20012;-82
2022/05/01 01:23:57;;;;;;;15.52;11.77;;;;;;;;;;6190075;23;20024;-82
2022/05/01 01:26:23;;;;;;;14.10;10.75;;;;;;;;;;6215488;23;20016;-82
2022/05/01 01:28:50;;;;;;;16.02;11.77;;;;;;;;;;6135653;23;20092;-81
2022/05/01 01:34:05;;;;;;;18.13;11.57;;;;;;;;;;6186660;23;20413;-82
2022/05/01 01:36:32;;;;;;;13.52;10.38;;;;;;;;;;6160375;23;20013;-82
2022/05/01 01:38:58;;;;;;;16.52;11.05;;;;;;;;;;6160227;23;20058;-82
2022/05/01 01:41:26;;;;;;;15.63;11.05;;;;;;;;;;6135765;23;20016;-82
2022/05/01 01:43:52;;;;;;;14.85;11.23;;;;;;;;;;6160222;23;20032;-82
2022/05/01 01:46:18;;;;;;;15.57;10.82;;;;;;;;;;6160545;23;20015;-82
2022/05/01 01:48:45;;;;;;;17.15;11.75;;;;;;;;;;6160093;23;20017;-82
2022/05/01 01:51:11;;;;;;;17.40;11.50;;;;;;;;;;6160409;23;20020;-82
2022/05/01 01:53:37;;;;;;;15.65;11.65;;;;;;;;;;6160068;23;20048;-83
2022/05/01 01:56:04;;;;;;;15.90;11.82;;;;;;;;;;6160730;23;20016;-83
2022/05/01 01:58:31;;;;;;;17.10;13.15;;;;;;;;;;6159997;23;20025;-82
2022/05/01 02:00:59;;;;;;;17.05;12.13;;;;;;;;;;6160269;23;20025;-82
2022/05/01 02:03:26;;;;;;;15.73;12.05;;;;;;;;;;6159994;23;20027;-82
2022/05/01 02:05:52;;;;;;;16.40;12.30;;;;;;;;;;6135594;23;20019;-82
2022/05/01 02:08:19;;;;;;;16.25;11.77;;;;;;;;;;6134980;23;20013;-82
2022/05/01 02:10:46;;;;;;;13.50;11.02;;;;;;;;;;6160086;23;20048;-82
2022/05/01 02:13:13;;;;;;;12.18;8.93;;;;;;;;;;6135213;23;20041;-82
2022/05/01 02:15:39;;;;;;;10.63;7.38;;;;;;;;;;6160076;23;20063;-82
2022/05/01 02:18:06;;;;;;;11.85;7.95;;;;;;;;;;6159819;23;20335;-82
2022/05/01 02:21:34;;;;;;;11.48;7.90;;;;;;;;;;6159959;23;20383;-82
2022/05/01 02:23:18;;;;;;;;;;;;;;;;;;6160209;23;20027;-82
2022/05/01 02:25:44;;;;;;;7.60;6.15;;;;;;;;;;6159962;23;19912;-82
2022/05/01 02:28:10;;;;;;;9.15;7.03;;;;;;;;;;6182545;23;20017;-82
2022/05/01 02:30:37;;;;;;;9.52;6.80;;;;;;;;;;6189838;23;20191;-82
2022/05/01 02:33:03;;;;;;;7.80;5.63;;;;;;;;;;6189526;23;20013;-82
2022/05/01 02:35:29;;;;;;;8.30;5.70;;;;;;;;;;6189701;23;20012;-82
2022/05/01 02:37:55;;;;;;;7.65;5.95;;;;;;;;;;6189722;23;20008;-82
2022/05/01 02:40:20;;;;;;;8.70;6.50;;;;;;;;;;6215954;23;20092;-82
2022/05/01 02:42:46;;;;;;;12.30;9.57;;;;;;;;;;6189786;23;20016;-82
2022/05/01 02:45:13;;;;;;;13.15;9.75;;;;;;;;;;6189481;23;20406;-82
2022/05/01 02:47:39;;;;;;;11.93;8.93;;;;;;;;;;6189385;23;20017;-82
2022/05/01 02:50:07;;;;;;;10.23;7.30;;;;;;;;;;6215978;23;20074;-82
2022/05/01 02:52:33;;;;;;;11.20;8.95;;;;;;;;;;6216517;23;20013;-82
2022/05/01 02:54:59;;;;;;;11.90;8.77;;;;;;;;;;6189281;23;20027;-82
2022/05/01 02:57:25;;;;;;;10.20;7.18;;;;;;;;;;6189486;23;20048;-82
2022/05/01 02:59:51;;;;;;;11.10;8.07;;;;;;;;;;6189319;23;20012;-82
2022/05/01 03:02:17;;;;;;;9.98;8.05;;;;;;;;;;6189553;23;20358;-82
2022/05/01 03:04:45;;;;;;;12.45;8.00;;;;;;;;;;6189204;23;20012;-83
2022/05/01 03:07:12;;;;;;;10.02;7.70;;;;;;;;;;6189249;23;20087;-82
2022/05/01 03:09:38;;;;;;;8.95;6.93;;;;;;;;;;6189150;23;20017;-82
2022/05/01 03:12:05;;;;;;;8.45;5.97;;;;;;;;;;6189374;23;20039;-82
2022/05/01 03:14:31;;;;;;;11.82;7.75;;;;;;;;;;6189204;23;20036;-82
2022/05/01 03:16:57;;;;;;;11.48;8.40;;;;;;;;;;6189288;23;20024;-82
2022/05/01 03:22:13;;;;;;;11.40;7.72;;;;;;;;;;6189330;23;20060;-82
2022/05/01 03:24:39;;;;;;;11.05;8.13;;;;;;;;;;6215964;23;20016;-82
2022/05/01 03:27:05;;;;;;;11.50;7.85;;;;;;;;;;6178841;23;20470;-83
2022/05/01 03:29:32;;;;;;;9.90;7.38;;;;;;;;;;6159121;23;20028;-82
2022/05/01 03:31:58;;;;;;;10.85;7.43;;;;;;;;;;6159399;23;20013;-82
2022/05/01 03:34:26;;;;;;;10.38;7.75;;;;;;;;;;6159103;23;20017;-82
2022/05/01 03:36:53;;;;;;;9.48;6.72;;;;;;;;;;6159261;23;20013;-81
2022/05/01 03:39:19;;;;;;;10.77;8.13;;;;;;;;;;6159042;23;20013;-82
2022/05/01 03:41:45;;;;;;;10.55;8.18;;;;;;;;;;6158864;23;20017;-82
2022/05/01 03:44:11;;;;;;;11.05;7.72;;;;;;;;;;6159010;23;20024;-82
2022/05/01 03:46:38;;;;;;;10.85;7.95;;;;;;;;;;6159194;23;20091;-82
2022/05/01 03:49:04;;;;;;;12.50;8.50;;;;;;;;;;6134164;23;20515;-81
2022/05/01 03:51:33;;;;;;;9.55;7.82;;;;;;;;;;6159288;23;20105;-82
2022/05/01 03:54:02;;;;;;;9.90;7.85;;;;;;;;;;6158709;23;20020;-82
2022/05/01 03:56:28;;;;;;;10.40;7.93;;;;;;;;;;6185729;23;20016;-82
2022/05/01 03:58:54;;;;;;;11.45;7.85;;;;;;;;;;6158868;23;20465;-82
2022/05/01 04:01:20;;;;;;;10.02;8.10;;;;;;;;;;6159170;23;20091;-82
2022/05/01 04:03:46;;;;;;;10.93;8.35;;;;;;;;;;6110205;23;20323;-82
2022/05/01 04:06:12;;;;;;;10.45;7.68;;;;;;;;;;6134208;23;20020;-82
2022/05/01 04:08:39;;;;;;;10.68;8.15;;;;;;;;;;6159008;23;20017;-82
2022/05/01 04:11:05;;;;;;;9.35;7.32;;;;;;;;;;6158838;23;20017;-82
2022/05/01 04:13:32;;;;;;;8.20;6.47;;;;;;;;;;6158951;23;20415;-82
2022/05/01 04:15:58;;;;;;;9.23;7.35;;;;;;;;;;6158759;23;20013;-82
2022/05/01 04:18:25;;;;;;;8.50;6.85;;;;;;;;;;6158891;23;20013;-82
2022/05/01 04:20:52;;;;;;;7.63;6.10;;;;;;;;;;6158762;23;20021;-82
2022/05/01 04:23:19;;;;;;;9.27;7.18;;;;;;;;;;6134378;23;20446;-82
2022/05/01 04:25:45;;;;;;;8.32;6.68;;;;;;;;;;6158614;23;20045;-82
2022/05/01 04:28:11;;;;;;;9.57;7.50;;;;;;;;;;6157242;23;20027;-83
2022/05/01 04:30:39;;;;;;;11.60;9.73;;;;;;;;;;6188435;23;20013;-83
2022/05/01 04:33:09;;;;;;;10.95;9.27;;;;;;;;;;6163638;23;20083;-82
2022/05/01 04:35:38;;;;;;;12.00;10.15;;;;;;;;;;6188282;23;20098;-82
2022/05/01 04:38:07;;;;;;;13.18;10.38;;;;;;;;;;6188350;23;20021;-82
2022/05/01 04:40:58;;;;;;;12.65;10.35;;;;;;;;;;6188187;23;20103;-83
2022/05/01 04:43:25;;;;;;;12.55;10.02;;;;;;;;;;6175100;23;20047;-82
2022/05/01 04:45:52;;;;;;;12.93;10.25;;;;;;;;;;6188376;23;20327;-82
2022/05/01 04:48:19;;;;;;;11.45;8.80;;;;;;;;;;6188303;23;20017;-82
2022/05/01 04:50:46;;;;;;;10.00;7.30;;;;;;;;;;6188243;23;20015;-82
2022/05/01 04:53:13;;;;;;;11.07;8.85;;;;;;;;;;6215243;23;20020;-82
2022/05/01 04:55:40;;;;;;;12.85;9.05;;;;;;;;;;6188179;23;20009;-82
2022/05/01 04:58:07;;;;;;;12.23;9.27;;;;;;;;;;6188408;23;20017;-83
2022/05/01 05:00:33;;;;;;;14.48;10.95;;;;;;;;;;6188205;23;20402;-83
2022/05/01 05:02:59;;;;;;;10.13;8.00;;;;;;;;;;6188429;23;20338;-83
2022/05/01 05:05:28;;;;;;;10.77;7.35;;;;;;;;;;6188145;23;20017;-83
2022/05/01 05:07:54;;;;;;;8.85;6.78;;;;;;;;;;6188209;23;20058;-83
2022/05/01 05:10:20;;;;;;;9.38;7.05;;;;;;;;;;6188030;23;20015;-83
2022/05/01 05:12:47;;;;;;;7.55;6.03;;;;;;;;;;6188287;23;20013;-82
2022/05/01 05:15:20;;;;;;;15.63;8.38;;;;;;;;;;6188138;23;20087;-82
2022/05/01 05:17:47;;;;;;;70.10;12.68;;;;;;;;;;6188297;23;20468;-82
2022/05/01 05:20:13;;;;;;;19.42;10.35;;;;;;;;;;6163171;23;20354;-82
2022/05/01 05:22:43;;;;;;;13.73;9.40;;;;;;;;;;6163515;23;20021;-82
2022/05/01 05:25:10;;;;;;;11.27;8.93;;;;;;;;;;6188077;23;20298;-82
2022/05/01 05:27:36;;;;;;;9.77;8.18;;;;;;;;;;6188002;23;20091;-82
2022/05/01 05:30:02;;;;;;;10.05;8.15;;;;;;;;;;6214545;23;20813;-82
2022/05/01 05:32:28;;;;;;;10.82;8.27;;;;;;;;;;6188385;23;20016;-82
2022/05/01 05:34:54;;;;;;;14.90;9.02;;;;;;;;;;6188013;23;20040;-83
2022/05/01 05:37:20;;;;;;;11.80;9.02;;;;;;;;;;6163442;23;20015;-82
2022/05/01 05:39:47;;;;;;;11.27;8.52;;;;;;;;;;6215155;23;20128;-82
2022/05/01 05:42:13;;;;;;;9.27;7.95;;;;;;;;;;6188117;23;20085;-83
2022/05/01 05:44:39;;;;;;;9.15;8.02;;;;;;;;;;6215146;23;20105;-83
2022/05/01 05:47:05;;;;;;;10.85;8.13;;;;;;;;;;6214790;23;20008;-84
2022/05/01 05:49:32;;;;;;;12.32;8.73;;;;;;;;;;6163239;23;20017;-83
2022/05/01 05:51:58;;;;;;;13.23;10.48;;;;;;;;;;6187953;23;20012;-82
2022/05/01 05:54:24;;;;;;;15.30;10.48;;;;;;;;;;6188163;23;20040;-82
2022/05/01 05:56:50;;;;;;;16.55;12.40;;;;;;;;;;6187911;23;20040;-82
2022/05/01 05:59:16;;;;;;;19.30;13.30;;;;;;;;;;6188171;23;20025;-82
2022/05/01 06:01:42;;;;;;;20.52;14.93;;;;;;;;;;6187944;23;20020;-82
2022/05/01 06:04:09;;;;;;;19.10;14.60;;;;;;;;;;6189045;23;20023;-83
2022/05/01 06:06:35;;;;;;;18.25;13.98;;;;;;;;;;6216130;23;20461;-83
2022/05/01 06:09:02;;;;;;;17.33;13.07;;;;;;;;;;6189822;23;20381;-84
2022/05/01 06:11:28;;;;;;;18.63;14.40;;;;;;;;;;6189595;23;20013;-83
2022/05/01 06:13:54;;;;;;;20.88;13.82;;;;;;;;;;6190033;23;20423;-83
2022/05/01 06:16:20;;;;;;;18.92;13.90;;;;;;;;;;6189595;23;20022;-83
2022/05/01 06:18:47;;;;;;;17.33;13.07;;;;;;;;;;6190224;23;20066;-83
2022/05/01 06:21:13;;;;;;;19.77;14.18;;;;;;;;;;6189133;23;20021;-83
2022/05/01 06:23:40;;;;;;;20.55;14.45;;;;;;;;;;6216469;23;20008;-83
2022/05/01 06:26:07;;;;;;;17.20;13.52;;;;;;;;;;6189354;23;20131;-83
2022/05/01 06:28:33;;;;;;;17.35;13.30;;;;;;;;;;6188769;23;20090;-84
2022/05/01 06:31:00;;;;;;;15.13;12.50;;;;;;;;;;6189153;23;20016;-85
2022/05/01 06:33:26;;;;;;;17.98;12.98;;;;;;;;;;6189330;23;20582;-83
2022/05/01 06:35:53;;;;;;;18.75;14.23;;;;;;;;;;6189034;23;20044;-83
2022/05/01 06:38:19;;;;;;;17.67;14.13;;;;;;;;;;6164654;23;20434;-84
2022/05/01 06:40:46;;;;;;;18.88;14.27;;;;;;;;;;6189013;23;20021;-83
2022/05/01 06:43:12;;;;;;;18.25;13.05;;;;;;;;;;6189102;23;20055;-83
2022/05/01 06:45:38;;;;;;;17.92;14.15;;;;;;;;;;6188927;23;20428;-83
2022/05/01 06:48:05;;;;;;;16.33;12.05;;;;;;;;;;6189032;23;20051;-83
2022/05/01 06:50:31;;;;;;;15.13;12.38;;;;;;;;;;6189049;23;20306;-83
2022/05/01 06:52:57;;;;;;;15.68;12.38;;;;;;;;;;6189018;23;20016;-82
2022/05/01 06:55:25;;;;;;;14.02;10.75;;;;;;;;;;6189389;23;20013;-83
2022/05/01 06:57:52;;;;;;;15.65;10.95;;;;;;;;;;6164693;23;20092;-83
2022/05/01 07:00:18;;;;;;;17.00;11.27;;;;;;;;;;6189078;23;20409;-83
2022/05/01 07:02:48;;;;;;;13.05;10.57;;;;;;;;;;6164044;23;20141;-83
2022/05/01 07:05:15;;;;;;;15.48;10.80;;;;;;;;;;6189025;23;20442;-83
2022/05/01 07:07:41;;;;;;;12.45;9.82;;;;;;;;;;6188541;23;20020;-83
2022/05/01 07:10:08;;;;;;;13.75;9.35;;;;;;;;;;6188894;23;20092;-83
2022/05/01 07:12:34;;;;;;;13.05;9.40;;;;;;;;;;6215782;23;20020;-83
2022/05/01 07:15:00;;;;;;;14.32;9.85;;;;;;;;;;6188765;23;20008;-83
2022/05/01 07:17:26;;;;;;;14.07;8.98;;;;;;;;;;6215445;23;20423;-82
2022/05/01 07:19:52;;;;;;;12.50;8.50;;;;;;;;;;6189315;23;20062;-83
2022/05/01 07:22:19;;;;;;;9.60;6.03;;;;;;;;;;6189113;23;20009;-83
2022/05/01 07:24:44;;;;;;;11.70;6.90;;;;;;;;;;6189309;23;20087;-83
2022/05/01 07:27:10;;;;;;;10.10;6.80;;;;;;;;;;6188722;23;20044;-83
2022/05/01 07:29:36;;;;;;;10.57;6.95;;;;;;;;;;6164304;23;20092;-83
2022/05/01 07:32:03;;;;;;;10.13;6.70;;;;;;;;;;6188971;23;20019;-83
2022/05/01 07:34:29;;;;;;;9.63;6.05;;;;;;;;;;6189164;23;20017;-83
2022/05/01 07:36:54;;;;;;;9.98;6.55;;;;;;;;;;6188849;23;20019;-84
2022/05/01 07:39:21;;;;;;;10.85;6.20;;;;;;;;;;6189223;23;20087;-82
2022/05/01 07:41:47;;;;;;;10.77;6.40;;;;;;;;;;6188912;23;20021;-82
2022/05/01 07:44:13;;;;;;;9.20;6.20;;;;;;;;;;6189088;23;20341;-83
2022/05/01 07:46:39;;;;;;;10.75;6.00;;;;;;;;;;6188737;23;20048;-83
2022/05/01 07:49:05;;;;;;;8.27;6.28;;;;;;;;;;6162068;23;20016;-82
2022/05/01 07:51:32;;;;;;;14.20;7.13;;;;;;;;;;6188772;23;20012;-83
2022/05/01 07:53:58;;;;;;;11.02;7.15;;;;;;;;;;6188945;23;20398;-82
2022/05/01 07:56:25;;;;;;;9.75;5.97;;;;;;;;;;6188718;23;20036;-83
2022/05/01 07:58:51;;;;;;;9.88;6.32;;;;;;;;;;6189020;23;20087;-83
2022/05/01 08:01:17;;;;;;;9.88;5.70;;;;;;;;;;6187441;23;20446;-82
2022/05/01 08:06:28;;;;;;;9.80;5.72;;;;;;;;;;6214322;23;20024;-83
2022/05/01 08:08:53;;;;;;;10.70;6.53;;;;;;;;;;6188752;23;20017;-83
2022/05/01 08:11:20;;;;;;;9.85;5.35;;;;;;;;;;6187483;23;20323;-83
2022/05/01 08:13:46;;;;;;;7.78;5.07;;;;;;;;;;6188988;23;20060;-82
2022/05/01 08:16:12;;;;;;;8.90;5.97;;;;;;;;;;6187624;23;20012;-83
2022/05/01 08:21:22;;;;;;;7.50;5.38;;;;;;;;;;6214238;23;20016;-83
2022/05/01 08:23:49;;;;;;;8.82;4.80;;;;;;;;;;6188521;23;20016;-83
2022/05/01 08:26:17;;;;;;;7.82;4.28;;;;;;;;;;6207897;23;20020;-83
2022/05/01 08:28:44;;;;;;;8.40;4.50;;;;;;;;;;6159650;23;20017;-82
2022/05/01 08:31:10;;;;;;;7.68;4.13;;;;;;;;;;6186703;23;20437;-84
2022/05/01 08:33:37;;;;;;;7.18;4.40;;;;;;;;;;6187248;23;20044;-82
2022/05/01 08:36:04;;;;;;;8.45;4.75;;;;;;;;;;6187979;23;20433;-82
2022/05/01 08:38:30;;;;;;;7.53;4.55;;;;;;;;;;6187949;23;20066;-84
2022/05/01 08:40:56;;;;;;;7.88;4.70;;;;;;;;;;6189034;23;20023;-84
2022/05/01 08:43:23;;;;;;;7.25;4.55;;;;;;;;;;6187902;23;20028;-82
2022/05/01 08:46:01;;;;;;;7.80;4.63;;;;;;;;;;6188437;23;20461;-82
2022/05/01 08:48:49;;;;;;;7.22;4.30;;;;;;;;;;6214944;23;20013;-83
2022/05/01 08:51:17;;;;;;;10.40;4.45;;;;;;;;;;6188465;23;20031;-83
2022/05/01 08:53:44;;;;;;;9.25;5.18;;;;;;;;;;6215284;23;20009;-83
2022/05/01 08:56:10;;;;;;;8.82;4.57;;;;;;;;;;6188414;23;20067;-82
2022/05/01 08:58:40;;;;;;;7.85;5.00;;;;;;;;;;6188142;23;20393;-83
2022/05/01 09:01:06;;;;;;;6.88;4.35;;;;;;;;;;6215342;23;20017;-82
2022/05/01 09:03:32;;;;;;;10.50;5.20;;;;;;;;;;6188165;23;20012;-82
2022/05/01 09:05:58;;;;;;;9.55;4.78;;;;;;;;;;6188525;23;20020;-82
2022/05/01 09:08:25;;;;;;;7.63;4.35;;;;;;;;;;6187935;23;20055;-82
2022/05/01 09:10:50;;;;;;;8.05;5.00;;;;;;;;;;6215291;23;20009;-82
2022/05/01 09:13:17;;;;;;;8.52;5.18;;;;;;;;;;6188063;23;20013;-82
2022/05/01 09:15:44;;;;;;;7.85;4.40;;;;;;;;;;6188251;23;20013;-82
2022/05/01 09:18:11;;;;;;;8.95;4.72;;;;;;;;;;6214819;23;20018;-82
2022/05/01 09:20:39;;;;;;;9.57;4.72;;;;;;;;;;6188399;23;20017;-82
2022/05/01 09:23:06;;;;;;;7.45;4.75;;;;;;;;;;6163074;23;20019;-82
2022/05/01 09:25:32;;;;;;;8.30;4.57;;;;;;;;;;6215308;23;20036;-82
2022/05/01 09:27:59;;;;;;;6.43;4.20;;;;;;;;;;6162695;23;20327;-82
2022/05/01 09:30:31;;;;;;;8.82;4.70;;;;;;;;;;6214960;23;20402;-82
2022/05/01 09:32:58;;;;;;;9.60;4.25;;;;;;;;;;6187908;23;20112;-83
2022/05/01 09:35:34;;;;;;;8.27;4.40;;;;;;;;;;6188307;23;20013;-83
2022/05/01 09:38:17;;;;;;;7.20;3.83;;;;;;;;;;6163055;23;20012;-83
2022/05/01 09:40:47;;;;;;;8.80;4.75;;;;;;;;;;6190319;23;20017;-83
2022/05/01 09:43:34;;;;;;;9.20;4.10;;;;;;;;;;6189896;23;20461;-83
2022/05/01 09:46:19;;;;;;;8.32;4.25;;;;;;;;;;6190161;23;20074;-83
2022/05/01 09:48:57;;;;;;;8.88;4.32;;;;;;;;;;6190337;23;20013;-83
2022/05/01 09:51:23;;;;;;;8.45;4.43;;;;;;;;;;6165279;23;20012;-82
2022/05/01 09:53:50;;;;;;;8.25;3.95;;;;;;;;;;6216674;23;20012;-83
2022/05/01 09:56:16;;;;;;;10.95;4.18;;;;;;;;;;6189961;23;20071;-82
2022/05/01 09:58:43;;;;;;;16.08;4.80;;;;;;;;;;6189949;23;20388;-83
2022/05/01 10:01:11;;;;;;;8.88;4.13;;;;;;;;;;6165308;23;20067;-82
2022/05/01 10:03:38;;;;;;;7.80;3.70;;;;;;;;;;6189716;23;20082;-82
2022/05/01 10:06:06;;;;;;;7.40;4.00;;;;;;;;;;6189938;23;20091;-82
2022/05/01 10:08:33;;;;;;;8.07;4.32;;;;;;;;;;6189910;23;20353;-82
2022/05/01 10:10:59;;;;;;;6.75;4.07;;;;;;;;;;6190932;23;20044;-82
2022/05/01 10:13:26;;;;;;;7.07;4.00;;;;;;;;;;6216352;23;20462;-82
2022/05/01 10:15:52;;;;;;;7.22;4.13;;;;;;;;;;6216946;23;20047;-82
2022/05/01 10:18:19;;;;;;;8.23;4.25;;;;;;;;;;6189441;23;20027;-82
2022/05/01 10:20:45;;;;;;;7.95;4.22;;;;;;;;;;6164914;23;20016;-83
2022/05/01 10:23:12;;;;;;;6.70;4.00;;;;;;;;;;6189580;23;20024;-82
2022/05/01 10:25:39;;;;;;;7.97;4.30;;;;;;;;;;6189824;23;20023;-83
2022/05/01 10:28:26;;;;;;;8.20;4.22;;;;;;;;;;6164384;23;20338;-82
2022/05/01 10:34:07;;;;;;;8.18;4.28;;;;;;;;;;6216154;23;20013;-83
2022/05/01 10:37:00;;;;;;;6.82;4.20;;;;;;;;;;6189510;23;20410;-83
2022/05/01 10:39:29;;;;;;;7.45;3.65;;;;;;;;;;6216369;23;20017;-83
2022/05/01 10:41:56;;;;;;;9.60;3.95;;;;;;;;;;6189924;23;20016;-83
2022/05/01 10:44:30;;;;;;;6.75;3.80;;;;;;;;;;6216137;23;20012;-82
2022/05/01 10:47:04;;;;;;;6.93;3.60;;;;;;;;;;6216334;23;20008;-83
2022/05/01 10:49:37;;;;;;;9.10;4.28;;;;;;;;;;6189313;23;20367;-83
2022/05/01 10:52:19;;;;;;;6.85;4.25;;;;;;;;;;6189423;23;20377;-83
2022/05/01 10:54:54;;;;;;;5.80;3.83;;;;;;;;;;6189306;23;20051;-82
2022/05/01 10:57:20;;;;;;;6.40;3.53;;;;;;;;;;6189183;23;20015;-82
2022/05/01 10:59:47;;;;;;;7.97;3.90;;;;;;;;;;6215865;23;20012;-82
2022/05/01 11:02:22;;;;;;;8.40;3.80;;;;;;;;;;6216087;23;20020;-82
2022/05/01 11:04:48;;;;;;;9.10;3.55;;;;;;;;;;6189380;23;20323;-81
2022/05/01 11:07:16;;;;;;;7.13;3.70;;;;;;;;;;6189291;23;20407;-82
2022/05/01 11:09:44;;;;;;;8.27;3.80;;;;;;;;;;6189075;23;20458;-82
2022/05/01 11:12:13;;;;;;;6.93;3.45;;;;;;;;;;6164495;23;20063;-82
2022/05/01 11:14:39;;;;;;;6.63;3.80;;;;;;;;;;6189154;23;20442;-82
2022/05/01 11:17:08;;;;;;;6.45;3.40;;;;;;;;;;6189014;23;20033;-82
2022/05/01 11:19:47;;;;;;;6.97;3.58;;;;;;;;;;6215984;23;20016;-81
2022/05/01 11:22:13;;;;;;;6.40;3.67;;;;;;;;;;6189186;23;20040;-82
2022/05/01 11:24:43;;;;;;;6.88;3.70;;;;;;;;;;6189061;23;20059;-82
2022/05/01 11:27:16;;;;;;;8.25;4.20;;;;;;;;;;6188963;23;20203;-82
2022/05/01 11:30:01;;;;;;;7.25;3.78;;;;;;;;;;6215905;23;20044;-82
2022/05/01 11:32:27;;;;;;;6.45;3.85;;;;;;;;;;6189457;23;20067;-82
2022/05/01 11:34:54;;;;;;;6.45;3.38;;;;;;;;;;6215903;23;20017;-82
2022/05/01 11:37:21;;;;;;;6.15;3.60;;;;;;;;;;6215940;23;20040;-82
2022/05/01 11:39:48;;;;;;;7.28;3.78;;;;;;;;;;6188833;23;20350;-82
2022/05/01 11:42:26;;;;;;;7.03;3.40;;;;;;;;;;6215592;23;20441;-82
2022/05/01 11:44:53;;;;;;;6.90;3.63;;;;;;;;;;6215688;23;20159;-82
2022/05/01 11:47:19;;;;;;;7.22;3.95;;;;;;;;;;6215524;23;20121;-82
2022/05/01 11:49:45;;;;;;;6.68;3.10;;;;;;;;;;6188728;23;20012;-82
2022/05/01 11:52:13;;;;;;;6.82;3.78;;;;;;;;;;6188949;23;20012;-82
2022/05/01 11:54:59;;;;;;;6.72;3.40;;;;;;;;;;6188693;23;20040;-82
2022/05/01 12:03:07;;;;;;;7.60;3.30;;;;;;;;;;6215669;23;20337;-82
2022/05/01 12:05:41;;;;;;;7.47;3.28;;;;;;;;;;6188596;23;20067;-82
2022/05/01 12:08:07;;;;;;;7.93;2.83;;;;;;;;;;6215605;23;20334;-82
2022/05/01 12:10:32;;;;;;;7.13;3.35;;;;;;;;;;6215607;23;20019;-82
2022/05/01 12:12:58;;;;;;;6.47;3.40;;;;;;;;;;6188698;23;20012;-84
2022/05/01 12:15:25;;;;;;;8.30;3.30;;;;;;;;;;6188551;23;20008;-84
2022/05/01 12:17:52;;;;;;;6.93;3.42;;;;;;;;;;6188614;23;20020;-82
2022/05/01 12:20:18;;;;;;;4.78;2.95;;;;;;;;;;6188541;23;20083;-84
2022/05/01 12:22:44;;;;;;;7.05;3.22;;;;;;;;;;6188642;23;20438;-82
2022/05/01 12:25:12;;;;;;;6.88;3.53;;;;;;;;;;6188427;23;20018;-82
2022/05/01 12:27:40;;;;;;;5.38;3.00;;;;;;;;;;6188333;23;20024;-82
2022/05/01 12:30:07;;;;;;;7.40;3.17;;;;;;;;;;6188416;23;20020;-82
2022/05/01 12:32:35;;;;;;;9.25;3.30;;;;;;;;;;6188567;23;20048;-84
2022/05/01 12:35:02;;;;;;;7.28;3.40;;;;;;;;;;6188355;23;20418;-82
2022/05/01 12:37:29;;;;;;;8.43;3.38;;;;;;;;;;6188411;23;20104;-82
2022/05/01 12:39:59;;;;;;;7.38;3.67;;;;;;;;;;6188501;23;20013;-82
2022/05/01 12:45:16;;;;;;;7.55;3.55;;;;;;;;;;6215349;23;20012;-82
2022/05/01 12:48:01;;;;;;;5.40;3.30;;;;;;;;;;6163655;23;20008;-82
2022/05/01 12:50:28;;;;;;;8.03;3.30;;;;;;;;;;6188425;23;20020;-82
2022/05/01 12:52:57;;;;;;;8.98;3.38;;;;;;;;;;6188230;23;20013;-83
2022/05/01 12:55:29;;;;;;;10.43;3.65;;;;;;;;;;6187798;23;20084;-82
2022/05/01 12:57:57;;;;;;;6.15;2.97;;;;;;;;;;6163559;23;20023;-82
2022/05/01 13:00:30;;;;;;;6.78;3.33;;;;;;;;;;6163454;23;20465;-82
2022/05/01 13:03:15;;;;;;;6.97;3.13;;;;;;;;;;6188390;23;20116;-83
2022/05/01 13:05:42;;;;;;;6.22;3.00;;;;;;;;;;6215127;23;20019;-83
2022/05/01 13:08:17;;;;;;;7.47;3.33;;;;;;;;;;6188143;23;20012;-83
2022/05/01 13:10:44;;;;;;;6.45;3.20;;;;;;;;;;6163400;23;20044;-83
2022/05/01 13:13:10;;;;;;;6.50;3.03;;;;;;;;;;6163709;23;20404;-83
2022/05/01 13:15:39;;;;;;;7.93;3.33;;;;;;;;;;6216828;23;20044;-83
2022/05/01 13:18:05;;;;;;;8.70;3.30;;;;;;;;;;6190309;23;20309;-83
2022/05/01 13:20:31;;;;;;;7.35;3.25;;;;;;;;;;6190468;23;20024;-83
2022/05/01 13:22:57;;;;;;;6.38;3.10;;;;;;;;;;6189590;23;20446;-83
2022/05/01 13:25:23;;;;;;;6.30;2.60;;;;;;;;;;6215464;23;20098;-83
2022/05/01 13:27:49;;;;;;;6.90;3.40;;;;;;;;;;6197360;23;20017;-83
2022/05/01 13:30:15;;;;;;;6.63;3.00;;;;;;;;;;6160300;23;20009;-83
2022/05/01 13:32:41;;;;;;;6.20;3.13;;;;;;;;;;6186759;23;20059;-83
2022/05/01 13:35:07;;;;;;;6.75;3.08;;;;;;;;;;6160422;23;20306;-83
2022/05/01 13:37:34;;;;;;;8.60;3.10;;;;;;;;;;6186698;23;20009;-85
2022/05/01 13:45:30;;;;;;;8.75;3.25;;;;;;;;;;6186909;23;20024;-83
2022/05/01 13:47:56;;;;;;;7.50;3.03;;;;;;;;;;6134355;23;20047;-83
2022/05/01 13:50:24;;;;;;;6.43;3.55;;;;;;;;;;6135563;23;20080;-83
2022/05/01 13:52:50;;;;;;;7.68;4.05;;;;;;;;;;6160062;23;20430;-83
2022/05/01 13:55:16;;;;;;;6.53;3.70;;;;;;;;;;6134437;23;20016;-83
2022/05/01 13:57:43;;;;;;;7.07;4.05;;;;;;;;;;6160111;23;20017;-83
2022/05/01 14:00:10;;;;;;;8.90;4.20;;;;;;;;;;6134633;23;20051;-82
2022/05/01 14:02:37;;;;;;;7.97;4.18;;;;;;;;;;6135668;23;20020;-82
2022/05/01 14:05:03;;;;;;;6.32;3.88;;;;;;;;;;6159650;23;20021;-83
2022/05/01 14:07:29;;;;;;;7.93;4.40;;;;;;;;;;6186569;23;20016;-82
2022/05/01 14:09:55;;;;;;;7.40;4.15;;;;;;;;;;6158869;23;20009;-84
2022/05/01 14:12:20;;;;;;;9.23;4.57;;;;;;;;;;6161111;23;20021;-83
2022/05/01 14:14:47;;;;;;;7.75;4.18;;;;;;;;;;6159632;23;20017;-83
2022/05/01 14:17:13;;;;;;;8.48;3.83;;;;;;;;;;6159832;23;20078;-83
2022/05/01 14:19:40;;;;;;;7.38;3.67;;;;;;;;;;6159401;23;20032;-83
2022/05/01 14:22:06;;;;;;;9.18;3.95;;;;;;;;;;6159793;23;20075;-83
2022/05/01 14:24:34;;;;;;;9.40;4.70;;;;;;;;;;6159111;23;20013;-83
2022/05/01 14:27:00;;;;;;;7.65;4.20;;;;;;;;;;6143485;23;20401;-82
2022/05/01 14:29:25;;;;;;;12.68;5.45;;;;;;;;;;6187450;23;20013;-82
2022/05/01 14:31:58;;;;;;;7.85;4.50;;;;;;;;;;6189441;23;20008;-82
2022/05/01 14:34:26;;;;;;;9.52;4.93;;;;;;;;;;6215439;23;20032;-82
2022/05/01 14:36:55;;;;;;;7.30;4.63;;;;;;;;;;6189172;23;20013;-83
2022/05/01 14:39:22;;;;;;;8.73;4.05;;;;;;;;;;6187801;23;20016;-82
2022/05/01 14:41:49;;;;;;;10.00;4.78;;;;;;;;;;6164573;23;20012;-82
2022/05/01 14:44:17;;;;;;;8.77;4.80;;;;;;;;;;6188511;23;20370;-82
2022/05/01 14:46:52;;;;;;;8.35;4.35;;;;;;;;;;6189152;23;20016;-82
2022/05/01 14:49:18;;;;;;;7.30;4.05;;;;;;;;;;6188167;23;20023;-83
2022/05/01 14:51:46;;;;;;;6.63;4.07;;;;;;;;;;6216095;23;20334;-83
2022/05/01 14:54:14;;;;;;;7.55;4.32;;;;;;;;;;6186516;23;20067;-84
2022/05/01 14:56:40;;;;;;;10.32;4.22;;;;;;;;;;6189064;23;20484;-83
2022/05/01 15:07:41;;;;;;;8.43;4.18;;;;;;;;;;6209286;23;20018;-83
2022/05/01 15:10:09;;;;;;;9.15;4.30;;;;;;;;;;6214864;23;20012;-82
2022/05/01 15:12:35;;;;;;;8.23;4.35;;;;;;;;;;6188959;23;20066;-83
2022/05/01 15:15:01;;;;;;;7.75;4.43;;;;;;;;;;6188192;23;20012;-84